createdAt,value
2022-09-05T00:00:21.172Z,13.66
2022-09-05T00:02:59.894Z,13.68
2022-09-05T00:06:02.696Z,13.66
2022-09-05T00:08:51.272Z,13.57
2022-09-05T00:11:40.511Z,13.63
2022-09-05T00:15:15.128Z,13.69
2022-09-05T00:17:39.454Z,13.73
2022-09-05T00:24:21.125Z,13.58
2022-09-05T00:24:27.484Z,13.42
2022-09-05T00:26:50.440Z,13.49
2022-09-05T00:31:05.366Z,13.45
2022-09-05T00:33:16.920Z,13.55
2022-09-05T00:36:32.656Z,13.58
2022-09-05T00:39:04.108Z,13.63
2022-09-05T00:41:32.886Z,13.66
2022-09-05T00:44:01.895Z,13.69
2022-09-05T00:46:43.014Z,13.58
2022-09-05T00:49:30.186Z,13.61
2022-09-05T00:52:04.143Z,13.67
2022-09-05T00:54:45.722Z,13.75
2022-09-05T00:57:30.711Z,13.77
2022-09-05T01:00:22.983Z,13.66
2022-09-05T01:03:18.174Z,13.65
2022-09-05T01:06:23.452Z,13.64
2022-09-05T01:09:01.721Z,13.73
2022-09-05T01:11:53.453Z,13.63
2022-09-05T01:14:51.390Z,13.59
2022-09-05T01:17:30.797Z,13.60
2022-09-05T01:20:20.724Z,13.56
2022-09-05T01:23:08.497Z,13.61
2022-09-05T01:25:47.082Z,13.74
2022-09-05T01:29:15.862Z,13.75
2022-09-05T01:31:45.505Z,13.62
2022-09-05T01:34:31.373Z,13.58
2022-09-05T01:37:32.857Z,13.61
2022-09-05T01:40:19.735Z,13.65
2022-09-05T01:43:05.057Z,13.63
2022-09-05T01:46:11.707Z,13.58
2022-09-05T01:48:49.672Z,13.74
2022-09-05T01:51:34.962Z,13.63
2022-09-05T01:54:21.214Z,13.63
2022-09-05T01:57:29.186Z,13.66
2022-09-05T02:00:05.960Z,13.72
2022-09-05T02:02:52.230Z,13.71
2022-09-05T02:05:48.315Z,13.77
2022-09-05T02:08:16.216Z,13.79
2022-09-05T02:11:02.487Z,13.81
2022-09-05T02:13:35.167Z,13.76
2022-09-05T02:16:23.247Z,13.62
2022-09-05T02:19:01.328Z,13.58
2022-09-05T02:21:55.570Z,13.63
2022-09-05T02:24:58.527Z,13.72
2022-09-05T02:28:04.632Z,13.75
2022-09-05T02:31:00.343Z,13.59
2022-09-05T02:33:46.097Z,13.49
2022-09-05T02:36:29.844Z,13.38
2022-09-05T02:45:05.898Z,13.42
2022-09-05T02:45:19.110Z,13.28
2022-09-05T02:45:27.302Z,13.40
2022-09-05T02:48:04.128Z,13.45
2022-09-05T02:57:24.142Z,13.36
2022-09-05T02:57:38.992Z,13.33
2022-09-05T02:58:07.872Z,13.21
2022-09-05T03:00:22.044Z,13.10
2022-09-05T03:02:51.934Z,13.09
2022-09-05T03:05:22.335Z,13.05
2022-09-05T03:08:04.014Z,12.98
2022-09-05T03:10:53.827Z,13.07
2022-09-05T03:13:30.393Z,13.09
2022-09-05T03:16:36.467Z,13.02
2022-09-05T03:19:46.633Z,12.85
2022-09-05T03:22:22.301Z,12.83
2022-09-05T03:24:58.104Z,12.91
2022-09-05T03:27:29.148Z,12.99
2022-09-05T03:30:15.637Z,13.11
2022-09-05T03:32:51.374Z,13.14
2022-09-05T03:36:00.793Z,13.17
2022-09-05T03:38:43.365Z,13.06
2022-09-05T03:41:40.180Z,12.95
2022-09-05T03:44:29.353Z,13.00
2022-09-05T03:47:20.034Z,13.09
2022-09-05T03:55:20.231Z,13.09
2022-09-05T03:57:10.415Z,13.04
2022-09-05T03:57:15.449Z,12.94
2022-09-05T03:59:28.673Z,12.92
2022-09-05T04:04:30.458Z,12.84
2022-09-05T04:08:16.801Z,13.02
2022-09-05T04:08:42.981Z,12.84
2022-09-05T04:11:40.141Z,12.78
2022-09-05T04:14:12.394Z,13.03
2022-09-05T04:16:48.161Z,12.95
2022-09-05T04:19:21.666Z,12.91
2022-09-05T04:21:55.374Z,12.94
2022-09-05T04:24:28.130Z,12.87
2022-09-05T04:27:24.396Z,12.85
2022-09-05T04:30:38.748Z,12.94
2022-09-05T04:33:05.360Z,12.89
2022-09-05T04:35:41.432Z,12.97
2022-09-05T04:38:14.143Z,12.89
2022-09-05T04:40:41.817Z,12.84
2022-09-05T04:43:36.081Z,12.88
2022-09-05T04:46:18.970Z,12.88
2022-09-05T04:49:04.821Z,12.84
2022-09-05T04:51:44.030Z,12.96
2022-09-05T04:54:22.877Z,12.93
2022-09-05T04:57:22.050Z,12.95
2022-09-05T05:05:58.818Z,12.96
2022-09-05T05:06:08.722Z,12.88
2022-09-05T05:06:12.051Z,12.97
2022-09-05T05:08:29.006Z,13.00
2022-09-05T05:17:25.324Z,12.92
2022-09-05T05:17:57.331Z,12.92
2022-09-05T05:18:09.964Z,13.02
2022-09-05T05:20:39.773Z,12.93
2022-09-05T05:22:48.311Z,13.09
2022-09-05T05:25:18.000Z,13.05
2022-09-05T05:27:47.311Z,13.13
2022-09-05T05:30:28.020Z,13.11
2022-09-05T05:32:55.601Z,13.07
2022-09-05T05:35:32.612Z,13.01
2022-09-05T05:38:27.582Z,13.16
2022-09-05T05:41:07.362Z,13.12
2022-09-05T05:43:41.822Z,13.11
2022-09-05T05:46:15.631Z,13.18
2022-09-05T05:48:48.376Z,13.13
2022-09-05T05:52:01.110Z,13.20
2022-09-05T05:54:46.158Z,13.15
2022-09-05T05:57:52.300Z,13.27
2022-09-05T06:00:51.318Z,13.29
2022-09-05T06:03:43.326Z,13.55
2022-09-05T06:06:18.165Z,13.36
2022-09-05T06:13:02.278Z,13.33
2022-09-05T06:15:05.030Z,13.37
2022-09-05T06:15:26.920Z,13.51
2022-09-05T06:18:20.367Z,13.58
2022-09-05T06:22:09.121Z,13.58
2022-09-05T06:24:15.810Z,13.64
2022-09-05T06:26:51.001Z,13.77
2022-09-05T06:29:34.525Z,13.91
2022-09-05T06:32:24.467Z,13.96
2022-09-05T06:35:20.234Z,14.08
2022-09-05T06:37:58.798Z,13.76
2022-09-05T06:40:51.508Z,14.03
2022-09-05T06:43:38.863Z,14.07
2022-09-05T06:46:55.262Z,14.26
2022-09-05T06:49:54.968Z,14.13
2022-09-05T06:52:52.668Z,14.25
2022-09-05T06:55:40.848Z,14.38
2022-09-05T06:58:25.830Z,14.41
2022-09-05T07:00:55.504Z,14.23
2022-09-05T07:03:44.006Z,14.26
2022-09-05T07:06:19.760Z,14.28
2022-09-05T07:08:57.439Z,14.40
2022-09-05T07:11:29.009Z,14.71
2022-09-05T07:14:04.669Z,15.00
2022-09-05T07:16:42.377Z,15.42
2022-09-05T07:19:27.182Z,15.35
2022-09-05T07:22:29.638Z,15.37
2022-09-05T07:25:09.147Z,15.37
2022-09-05T07:28:25.882Z,15.38
2022-09-05T07:30:29.178Z,15.90
2022-09-05T07:32:57.308Z,16.19
2022-09-05T07:35:29.364Z,16.53
2022-09-05T07:38:14.711Z,16.92
2022-09-05T07:40:49.490Z,17.12
2022-09-05T07:43:22.111Z,16.99
2022-09-05T07:46:11.643Z,17.45
2022-09-05T07:48:42.581Z,17.38
2022-09-05T07:56:41.231Z,17.58
2022-09-05T07:56:51.385Z,17.18
2022-09-05T07:57:27.105Z,17.46
2022-09-05T08:00:26.670Z,17.78
2022-09-05T08:02:58.374Z,17.02
2022-09-05T08:05:35.222Z,17.33
2022-09-05T08:08:05.770Z,17.69
2022-09-05T08:11:22.614Z,17.98
2022-09-05T08:13:48.640Z,17.92
2022-09-05T08:16:21.942Z,18.21
2022-09-05T08:18:56.230Z,18.34
2022-09-05T08:21:31.890Z,18.03
2022-09-05T08:24:05.432Z,18.46
2022-09-05T08:26:49.910Z,17.73
2022-09-05T08:29:32.854Z,18.29
2022-09-05T08:32:08.892Z,17.92
2022-09-05T08:34:48.551Z,18.34
2022-09-05T08:37:23.168Z,18.38
2022-09-05T08:40:10.084Z,18.32
2022-09-05T08:44:58.215Z,19.22
2022-09-05T08:46:49.141Z,20.01
2022-09-05T08:50:08.278Z,19.38
2022-09-05T08:53:45.365Z,20.18
2022-09-05T08:56:13.311Z,20.69
2022-09-05T08:59:31.713Z,20.03
2022-09-05T09:02:45.543Z,20.39
2022-09-05T09:05:21.180Z,20.30
2022-09-05T09:08:15.722Z,20.43
2022-09-05T09:11:05.821Z,19.83
2022-09-05T09:14:30.135Z,19.61
2022-09-05T09:17:07.310Z,20.34
2022-09-05T09:19:46.602Z,20.27
2022-09-05T09:22:33.252Z,20.13
2022-09-05T09:25:14.713Z,20.21
2022-09-05T09:28:46.669Z,20.02
2022-09-05T09:30:30.261Z,20.17
2022-09-05T09:33:02.068Z,20.48
2022-09-05T09:35:35.030Z,20.15
2022-09-05T09:38:26.594Z,20.58
2022-09-05T09:41:05.308Z,20.61
2022-09-05T09:43:32.058Z,20.83
2022-09-05T09:46:14.414Z,20.53
2022-09-05T09:49:23.011Z,20.59
2022-09-05T09:52:08.478Z,20.45
2022-09-05T09:54:54.010Z,20.86
2022-09-05T09:57:45.869Z,21.91
2022-09-05T10:00:24.141Z,21.91
2022-09-05T10:08:19.278Z,21.65
2022-09-05T10:10:47.950Z,21.87
2022-09-05T10:11:24.531Z,21.80
2022-09-05T10:12:48.275Z,21.54
2022-09-05T10:15:31.206Z,21.72
2022-09-05T10:18:14.350Z,21.70
2022-09-05T10:21:17.926Z,21.40
2022-09-05T10:24:06.288Z,21.69
2022-09-05T10:26:51.754Z,21.96
2022-09-05T10:29:49.030Z,22.50
2022-09-05T10:35:04.766Z,22.80
2022-09-05T10:35:37.680Z,22.33
2022-09-05T10:38:12.889Z,22.18
2022-09-05T10:41:07.949Z,22.26
2022-09-05T10:43:32.660Z,22.38
2022-09-05T10:46:49.466Z,22.33
2022-09-05T10:49:16.649Z,22.68
2022-09-05T10:51:51.737Z,22.23
2022-09-05T10:54:39.880Z,22.36
2022-09-05T10:57:30.900Z,22.24
2022-09-05T11:02:20.686Z,22.75
2022-09-05T11:03:34.572Z,22.68
2022-09-05T11:06:09.401Z,22.76
2022-09-05T11:08:49.332Z,22.40
2022-09-05T11:11:28.614Z,21.95
2022-09-05T11:14:04.615Z,22.62
2022-09-05T11:16:39.113Z,22.60
2022-09-05T11:19:19.162Z,22.81
2022-09-05T11:21:52.777Z,23.26
2022-09-05T11:24:55.800Z,23.35
2022-09-05T11:27:41.248Z,23.91
2022-09-05T11:30:29.640Z,24.12
2022-09-05T11:39:45.624Z,23.57
2022-09-05T11:39:58.053Z,23.49
2022-09-05T11:42:57.392Z,23.36
2022-09-05T11:45:57.053Z,22.99
2022-09-05T11:48:47.899Z,23.27
2022-09-05T11:51:58.438Z,23.27
2022-09-05T11:54:34.646Z,23.73
2022-09-05T11:57:32.543Z,23.64
2022-09-05T12:00:31.139Z,23.23
2022-09-05T12:02:59.104Z,23.34
2022-09-05T12:05:59.363Z,23.39
2022-09-05T12:08:26.451Z,23.20
2022-09-05T12:11:26.694Z,23.16
2022-09-05T12:14:21.454Z,23.72
2022-09-05T12:16:55.428Z,24.10
2022-09-05T12:19:34.990Z,23.82
2022-09-05T12:22:25.610Z,24.63
2022-09-05T12:25:24.839Z,25.15
2022-09-05T12:28:33.121Z,24.98
2022-09-05T12:31:00.445Z,24.77
2022-09-05T12:36:05.916Z,24.88
2022-09-05T12:40:15.733Z,24.91
2022-09-05T12:41:39.048Z,24.86
2022-09-05T12:43:30.014Z,25.31
2022-09-05T12:48:38.625Z,24.87
2022-09-05T12:51:45.101Z,24.96
2022-09-05T12:54:40.542Z,25.44
2022-09-05T13:00:52.506Z,25.21
2022-09-05T13:03:08.605Z,25.39
2022-09-05T13:03:27.654Z,25.65
2022-09-05T13:05:59.661Z,25.73
2022-09-05T13:08:59.098Z,25.60
2022-09-05T13:14:48.132Z,25.60
2022-09-05T13:14:52.849Z,25.70
2022-09-05T13:17:25.792Z,25.75
2022-09-05T13:19:52.871Z,25.24
2022-09-05T13:22:22.938Z,25.47
2022-09-05T13:25:13.441Z,25.58
2022-09-05T13:27:49.342Z,25.40
2022-09-05T13:33:49.122Z,25.56
2022-09-05T13:37:56.247Z,25.77
2022-09-05T13:38:17.484Z,25.55
2022-09-05T13:39:05.422Z,25.66
2022-09-05T13:41:36.670Z,25.63
2022-09-05T13:44:27.394Z,25.99
2022-09-05T13:47:02.148Z,26.12
2022-09-05T13:49:43.589Z,25.88
2022-09-05T13:52:16.501Z,26.04
2022-09-05T13:54:51.013Z,26.27
2022-09-05T13:57:31.902Z,26.10
2022-09-05T14:00:15.211Z,26.07
2022-09-05T14:06:45.035Z,25.77
2022-09-05T14:09:38.705Z,25.81
2022-09-05T14:12:08.853Z,26.14
2022-09-05T14:17:52.831Z,26.14
2022-09-05T14:20:43.017Z,25.87
2022-09-05T14:23:15.244Z,26.25
2022-09-05T14:25:47.821Z,26.26
2022-09-05T14:28:20.988Z,26.36
2022-09-05T14:33:43.743Z,26.51
2022-09-05T14:37:54.703Z,26.43
2022-09-05T14:38:00.558Z,26.27
2022-09-05T14:40:36.459Z,26.02
2022-09-05T14:43:40.688Z,26.09
2022-09-05T14:46:07.526Z,26.04
2022-09-05T14:48:59.103Z,26.15
2022-09-05T14:51:43.098Z,26.10
2022-09-05T15:00:40.049Z,26.00
2022-09-05T15:02:50.864Z,26.27
2022-09-05T15:03:02.536Z,26.20
2022-09-05T15:05:30.990Z,25.91
2022-09-05T15:08:02.983Z,26.12
2022-09-05T15:12:14.507Z,26.02
2022-09-05T15:13:26.319Z,25.91
2022-09-05T15:16:02.799Z,25.99
2022-09-05T15:18:33.686Z,25.79
2022-09-05T15:21:30.603Z,25.78
2022-09-05T15:24:17.259Z,25.60
2022-09-05T15:26:54.449Z,25.46
2022-09-05T15:29:25.927Z,25.36
2022-09-05T15:32:09.554Z,25.49
2022-09-05T15:34:38.676Z,25.22
2022-09-05T15:37:22.807Z,25.28
2022-09-05T15:40:01.602Z,24.93
2022-09-05T15:42:32.738Z,24.77
2022-09-05T15:45:16.772Z,24.92
2022-09-05T15:48:02.642Z,24.74
2022-09-05T15:50:29.500Z,24.41
2022-09-05T15:52:56.632Z,24.12
2022-09-05T15:55:26.211Z,23.97
2022-09-05T15:57:54.970Z,23.61
2022-09-05T16:00:33.986Z,23.41
2022-09-05T16:06:34.974Z,23.23
2022-09-05T16:10:33.924Z,23.16
2022-09-05T16:10:38.969Z,23.16
2022-09-05T16:12:13.923Z,23.09
2022-09-05T16:14:48.582Z,23.07
2022-09-05T16:23:19.239Z,22.90
2022-09-05T16:23:23.751Z,22.81
2022-09-05T16:23:41.378Z,22.75
2022-09-05T16:26:24.912Z,22.54
2022-09-05T16:28:59.042Z,22.49
2022-09-05T16:31:28.957Z,22.28
2022-09-05T16:33:56.102Z,22.29
2022-09-05T16:36:29.930Z,22.15
2022-09-05T16:39:01.460Z,22.15
2022-09-05T16:41:42.381Z,22.13
2022-09-05T16:44:28.349Z,21.84
2022-09-05T16:47:25.622Z,21.61
2022-09-05T16:50:23.927Z,21.57
2022-09-05T16:52:54.259Z,21.40
2022-09-05T16:55:56.347Z,21.34
2022-09-05T16:58:42.113Z,21.18
2022-09-05T17:01:48.043Z,21.19
2022-09-05T17:04:29.390Z,21.12
2022-09-05T17:07:22.394Z,21.01
2022-09-05T17:09:49.281Z,20.94
2022-09-05T17:12:25.339Z,20.88
2022-09-05T17:14:56.239Z,20.58
2022-09-05T17:18:19.377Z,20.48
2022-09-05T17:20:17.689Z,20.44
2022-09-05T17:26:27.803Z,20.26
2022-09-05T17:29:20.505Z,20.23
2022-09-05T17:30:32.207Z,20.29
2022-09-05T17:31:56.244Z,20.16
2022-09-05T17:34:47.862Z,20.10
2022-09-05T17:37:36.766Z,20.00
2022-09-05T17:40:30.427Z,19.93
2022-09-05T17:43:08.781Z,19.83
2022-09-05T17:45:56.892Z,19.77
2022-09-05T17:49:18.204Z,19.76
2022-09-05T17:51:51.095Z,19.52
2022-09-05T17:54:30.178Z,19.34
2022-09-05T17:57:28.704Z,19.16
2022-09-05T17:59:57.779Z,19.01
2022-09-05T18:02:26.648Z,18.90
2022-09-05T18:04:54.606Z,18.95
2022-09-05T18:07:30.412Z,18.76
2022-09-05T18:10:14.724Z,18.71
2022-09-05T18:13:13.419Z,18.60
2022-09-05T18:15:32.802Z,18.74
2022-09-05T18:18:05.931Z,18.78
2022-09-05T18:20:41.451Z,18.81
2022-09-05T18:23:39.493Z,18.72
2022-09-05T18:26:20.896Z,18.65
2022-09-05T18:29:05.996Z,18.65
2022-09-05T18:31:41.576Z,18.62
2022-09-05T18:34:21.306Z,18.54
2022-09-05T18:36:56.171Z,18.48
2022-09-05T18:39:24.245Z,18.50
2022-09-05T18:42:26.537Z,18.68
2022-09-05T18:45:14.825Z,18.46
2022-09-05T18:47:57.450Z,18.42
2022-09-05T18:50:32.319Z,18.23
2022-09-05T18:53:09.698Z,18.08
2022-09-05T18:56:12.218Z,18.10
2022-09-05T18:58:34.268Z,18.06
2022-09-05T19:01:49.383Z,17.96
2022-09-05T19:04:46.400Z,17.95
2022-09-05T19:07:22.412Z,17.94
2022-09-05T19:10:13.216Z,17.86
2022-09-05T19:12:53.598Z,17.76
2022-09-05T19:15:24.923Z,17.73
2022-09-05T19:18:26.118Z,17.62
2022-09-05T19:21:12.249Z,17.53
2022-09-05T19:23:56.390Z,17.52
2022-09-05T19:26:24.633Z,17.49
2022-09-05T19:36:50.879Z,17.43
2022-09-05T19:37:03.784Z,17.37
2022-09-05T19:37:04.775Z,17.32
2022-09-05T19:37:37.443Z,17.30
2022-09-05T19:43:42.820Z,17.20
2022-09-05T19:47:34.561Z,16.98
2022-09-05T19:47:42.045Z,17.11
2022-09-05T19:48:34.222Z,16.94
2022-09-05T19:51:16.234Z,16.94
2022-09-05T19:54:03.757Z,16.97
2022-09-05T19:56:52.594Z,16.77
2022-09-05T19:59:33.920Z,16.83
2022-09-05T20:02:02.573Z,16.79
2022-09-05T20:04:37.300Z,16.77
2022-09-05T20:07:15.885Z,16.76
2022-09-05T20:09:44.803Z,16.87
2022-09-05T20:12:24.465Z,16.65
2022-09-05T20:14:51.361Z,16.58
2022-09-05T20:17:37.424Z,16.55
2022-09-05T20:20:09.234Z,16.57
2022-09-05T20:22:50.562Z,16.51
2022-09-05T20:25:35.214Z,16.41
2022-09-05T20:28:15.575Z,16.34
2022-09-05T20:30:48.426Z,16.40
2022-09-05T20:33:24.534Z,16.39
2022-09-05T20:43:12.374Z,16.25
2022-09-05T20:43:17.032Z,16.22
2022-09-05T20:43:31.635Z,16.16
2022-09-05T20:44:52.419Z,16.11
2022-09-05T20:54:05.407Z,16.07
2022-09-05T20:54:13.192Z,16.00
2022-09-05T20:54:15.600Z,16.05
2022-09-05T20:56:23.859Z,16.06
2022-09-05T20:58:51.769Z,16.05
2022-09-05T21:01:23.327Z,15.98
2022-09-05T21:04:00.745Z,15.88
2022-09-05T21:06:33.955Z,15.78
2022-09-05T21:09:11.450Z,15.73
2022-09-05T21:11:38.239Z,15.71
2022-09-05T21:14:05.272Z,15.75
2022-09-05T21:16:35.822Z,15.74
2022-09-05T21:19:02.570Z,15.64
2022-09-05T21:21:31.503Z,15.54
2022-09-05T21:24:17.941Z,15.63
2022-09-05T21:26:46.348Z,15.61
2022-09-05T21:29:12.953Z,15.52
2022-09-05T21:31:54.419Z,15.49
2022-09-05T21:34:34.464Z,15.38
2022-09-05T21:37:07.561Z,15.48
2022-09-05T21:39:40.423Z,15.42
2022-09-05T21:43:51.432Z,15.39
2022-09-05T21:47:40.212Z,15.45
2022-09-05T21:48:03.308Z,15.25
2022-09-05T21:50:41.587Z,15.30
2022-09-05T21:55:45.172Z,15.29
2022-09-05T21:59:20.624Z,15.38
2022-09-05T21:59:24.726Z,15.41
2022-09-05T22:01:52.508Z,15.41
2022-09-05T22:04:22.073Z,15.38
2022-09-05T22:06:49.371Z,15.30
2022-09-05T22:09:20.560Z,15.21
2022-09-05T22:11:50.707Z,15.07
2022-09-05T22:14:19.131Z,15.18
2022-09-05T22:16:47.462Z,15.20
2022-09-05T22:19:22.564Z,15.16
2022-09-05T22:21:52.577Z,15.25
2022-09-05T22:24:19.601Z,14.94
2022-09-05T22:27:10.765Z,14.89
2022-09-05T22:29:36.597Z,14.96
2022-09-05T22:32:04.088Z,14.92
2022-09-05T22:34:30.989Z,14.94
2022-09-05T22:36:57.893Z,14.95
2022-09-05T22:39:36.804Z,14.98
2022-09-05T22:42:10.859Z,14.86
2022-09-05T22:44:41.011Z,14.66
2022-09-05T22:47:11.279Z,14.76
2022-09-05T22:49:37.976Z,14.77
2022-09-05T22:52:06.002Z,14.65
2022-09-05T22:54:33.179Z,14.50
2022-09-05T22:56:59.802Z,14.62
2022-09-05T22:59:26.447Z,14.53
2022-09-05T23:01:53.243Z,14.51
2022-09-05T23:04:20.180Z,14.48
2022-09-05T23:06:48.296Z,14.46
2022-09-05T23:09:15.040Z,14.44
2022-09-05T23:11:41.775Z,14.50
2022-09-05T23:14:08.405Z,14.37
2022-09-05T23:16:35.187Z,14.37
2022-09-05T23:19:01.918Z,14.32
2022-09-05T23:21:28.657Z,14.37
2022-09-05T23:23:55.476Z,14.41
2022-09-05T23:26:22.585Z,14.52
2022-09-05T23:28:49.396Z,14.23
2022-09-05T23:31:16.215Z,14.14
2022-09-05T23:33:43.275Z,14.16
2022-09-05T23:36:13.841Z,14.18
2022-09-05T23:38:44.272Z,14.09
2022-09-05T23:41:13.437Z,14.08
2022-09-05T23:43:40.415Z,14.11
2022-09-05T23:46:07.564Z,14.09
2022-09-05T23:48:34.391Z,14.01
2022-09-05T23:51:06.299Z,13.95
2022-09-05T23:53:33.128Z,13.91
2022-09-05T23:56:01.227Z,13.98
2022-09-05T23:58:29.278Z,13.80
